Uruacu, Brazil
Current Conditions -  °F | °C
As of 1:00 AM on Sunday 23 Nov 2014 (Local Time) from SBAN Reporting Station
Haze Haze  
Wind Chill: 66°   Ceiling: 8000
Heat Index: 66°   Visibility: 3mi
Dew Point: 64°   Wind: 0mph
Humidity: 94%   Direction: NA
Pressure: 30.06"   Gusts: NA
Location:  14.52°S, 49.14°W
Report Text: SBAN 230300Z 00000KT 5000 BR SCT003 BKN080 19/18 Q1018
Loading
Personal Weather Stations






























Interactive Weather Map New forecast layout! Learn more

10-Day Weather Forecast

Advertisements
Track Severe Weather on mobile